sensor_id;sensor_type;location;lat;lon;timestamp;pressure;altitude;pressure_sealevel;temperature;humidity
43115;BME280;28727;50.068;14.452;2022-08-05T00:00:49;99061.22;;;23.73;49.74
43115;BME280;28727;50.068;14.452;2022-08-05T00:03:21;99058.50;;;23.67;49.45
43115;BME280;28727;50.068;14.452;2022-08-05T00:05:55;99059.25;;;23.63;49.29
43115;BME280;28727;50.068;14.452;2022-08-05T00:08:47;99060.63;;;23.60;49.36
43115;BME280;28727;50.068;14.452;2022-08-05T00:11:23;99055.72;;;23.57;48.93
43115;BME280;28727;50.068;14.452;2022-08-05T00:14:05;99055.72;;;23.57;48.96
43115;BME280;28727;50.068;14.452;2022-08-05T00:16:44;99054.09;;;23.56;48.07
43115;BME280;28727;50.068;14.452;2022-08-05T00:19:24;99054.38;;;23.55;48.64
43115;BME280;28727;50.068;14.452;2022-08-05T00:22:04;99049.22;;;23.53;48.76
43115;BME280;28727;50.068;14.452;2022-08-05T00:24:36;99041.16;;;23.53;49.18
43115;BME280;28727;50.068;14.452;2022-08-05T00:27:12;99051.66;;;23.50;49.36
43115;BME280;28727;50.068;14.452;2022-08-05T00:29:47;99048.38;;;23.48;49.34
43115;BME280;28727;50.068;14.452;2022-08-05T00:32:19;99058.38;;;23.47;49.74
43115;BME280;28727;50.068;14.452;2022-08-05T00:34:56;99048.88;;;23.45;50.08
43115;BME280;28727;50.068;14.452;2022-08-05T00:37:37;99045.63;;;23.43;50.19
43115;BME280;28727;50.068;14.452;2022-08-05T00:40:25;99042.09;;;23.37;50.30
43115;BME280;28727;50.068;14.452;2022-08-05T00:43:01;99045.56;;;23.33;50.34
43115;BME280;28727;50.068;14.452;2022-08-05T00:45:38;99043.91;;;23.26;50.37
43115;BME280;28727;50.068;14.452;2022-08-05T00:48:19;99044.66;;;23.22;50.27
43115;BME280;28727;50.068;14.452;2022-08-05T00:51:02;99039.81;;;23.19;50.70
43115;BME280;28727;50.068;14.452;2022-08-05T00:53:53;99041.94;;;23.17;50.56
43115;BME280;28727;50.068;14.452;2022-08-05T00:56:33;99036.78;;;23.15;50.50
43115;BME280;28727;50.068;14.452;2022-08-05T00:59:05;99030.56;;;23.10;50.50
43115;BME280;28727;50.068;14.452;2022-08-05T01:01:38;99032.16;;;23.06;50.75
43115;BME280;28727;50.068;14.452;2022-08-05T01:04:19;99031.59;;;23.04;50.73
43115;BME280;28727;50.068;14.452;2022-08-05T01:07:00;99024.03;;;23.01;50.87
43115;BME280;28727;50.068;14.452;2022-08-05T01:09:35;99024.28;;;22.99;51.34
43115;BME280;28727;50.068;14.452;2022-08-05T01:12:11;99024.81;;;22.96;51.45
43115;BME280;28727;50.068;14.452;2022-08-05T01:15:02;99031.50;;;22.94;51.68
43115;BME280;28727;50.068;14.452;2022-08-05T01:17:46;99033.34;;;22.88;51.87
43115;BME280;28727;50.068;14.452;2022-08-05T01:20:30;99023.34;;;22.83;52.06
43115;BME280;28727;50.068;14.452;2022-08-05T01:23:34;99029.50;;;22.79;52.33
43115;BME280;28727;50.068;14.452;2022-08-05T01:26:55;99029.19;;;22.75;52.49
43115;BME280;28727;50.068;14.452;2022-08-05T01:29:35;99025.59;;;22.70;52.71
43115;BME280;28727;50.068;14.452;2022-08-05T01:32:16;99025.06;;;22.68;52.82
43115;BME280;28727;50.068;14.452;2022-08-05T01:34:57;99019.13;;;22.66;52.88
43115;BME280;28727;50.068;14.452;2022-08-05T01:37:48;99014.22;;;22.63;53.11
43115;BME280;28727;50.068;14.452;2022-08-05T01:40:22;99011.25;;;22.59;53.47
43115;BME280;28727;50.068;14.452;2022-08-05T01:43:01;99020.63;;;22.57;54.12
43115;BME280;28727;50.068;14.452;2022-08-05T01:45:34;99013.06;;;22.54;53.91
43115;BME280;28727;50.068;14.452;2022-08-05T01:48:15;99008.47;;;22.49;53.92
43115;BME280;28727;50.068;14.452;2022-08-05T01:50:49;99006.25;;;22.46;54.06
43115;BME280;28727;50.068;14.452;2022-08-05T01:53:22;99012.66;;;22.40;54.45
43115;BME280;28727;50.068;14.452;2022-08-05T01:56:16;99008.03;;;22.35;55.11
43115;BME280;28727;50.068;14.452;2022-08-05T01:59:13;99005.59;;;22.34;55.08
43115;BME280;28727;50.068;14.452;2022-08-05T02:01:46;99011.25;;;22.32;54.89
43115;BME280;28727;50.068;14.452;2022-08-05T02:04:21;99003.44;;;22.31;55.02
43115;BME280;28727;50.068;14.452;2022-08-05T02:06:54;99012.00;;;22.28;54.73
43115;BME280;28727;50.068;14.452;2022-08-05T02:09:28;99008.19;;;22.24;54.65
43115;BME280;28727;50.068;14.452;2022-08-05T02:12:10;99004.91;;;22.22;54.34
43115;BME280;28727;50.068;14.452;2022-08-05T02:14:47;99011.06;;;22.17;55.01
43115;BME280;28727;50.068;14.452;2022-08-05T02:17:28;99011.59;;;22.14;55.31
43115;BME280;28727;50.068;14.452;2022-08-05T02:20:24;99004.25;;;22.10;55.21
43115;BME280;28727;50.068;14.452;2022-08-05T02:23:06;99001.00;;;22.08;55.24
43115;BME280;28727;50.068;14.452;2022-08-05T02:25:42;99005.25;;;22.03;55.06
43115;BME280;28727;50.068;14.452;2022-08-05T02:28:27;99003.91;;;22.01;54.78
43115;BME280;28727;50.068;14.452;2022-08-05T02:31:10;99004.03;;;21.94;53.87
43115;BME280;28727;50.068;14.452;2022-08-05T02:33:49;99004.03;;;21.94;54.14
43115;BME280;28727;50.068;14.452;2022-08-05T02:36:30;98997.84;;;21.94;55.19
43115;BME280;28727;50.068;14.452;2022-08-05T02:39:05;99010.72;;;21.92;55.48
43115;BME280;28727;50.068;14.452;2022-08-05T02:41:40;98998.63;;;21.89;55.17
43115;BME280;28727;50.068;14.452;2022-08-05T02:44:33;98998.84;;;21.88;55.42
43115;BME280;28727;50.068;14.452;2022-08-05T02:47:08;98994.00;;;21.85;55.31
43115;BME280;28727;50.068;14.452;2022-08-05T02:49:41;98986.41;;;21.82;55.09
43115;BME280;28727;50.068;14.452;2022-08-05T02:52:19;98985.84;;;21.80;55.35
43115;BME280;28727;50.068;14.452;2022-08-05T02:55:02;98984.47;;;21.77;54.83
43115;BME280;28727;50.068;14.452;2022-08-05T02:57:41;98984.97;;;21.74;55.36
43115;BME280;28727;50.068;14.452;2022-08-05T03:00:35;98988.97;;;21.72;54.98
43115;BME280;28727;50.068;14.452;2022-08-05T03:03:12;98984.91;;;21.69;54.61
43115;BME280;28727;50.068;14.452;2022-08-05T03:05:47;98980.59;;;21.68;54.58
43115;BME280;28727;50.068;14.452;2022-08-05T03:08:40;98985.97;;;21.68;54.17
43115;BME280;28727;50.068;14.452;2022-08-05T03:11:21;98993.25;;;21.68;53.96
43115;BME280;28727;50.068;14.452;2022-08-05T03:14:13;98995.59;;;21.64;53.91
43115;BME280;28727;50.068;14.452;2022-08-05T03:16:45;98988.84;;;21.61;53.98
43115;BME280;28727;50.068;14.452;2022-08-05T03:19:16;98987.47;;;21.59;53.69
43115;BME280;28727;50.068;14.452;2022-08-05T03:22:06;98989.34;;;21.58;54.14
43115;BME280;28727;50.068;14.452;2022-08-05T03:24:50;98977.19;;;21.56;54.22
43115;BME280;28727;50.068;14.452;2022-08-05T03:27:22;98983.91;;;21.53;54.51
43115;BME280;28727;50.068;14.452;2022-08-05T03:30:15;98987.66;;;21.52;54.90
43115;BME280;28727;50.068;14.452;2022-08-05T03:32:51;98984.66;;;21.49;54.83
43115;BME280;28727;50.068;14.452;2022-08-05T03:35:24;98975.44;;;21.45;55.10
43115;BME280;28727;50.068;14.452;2022-08-05T03:38:01;98977.00;;;21.41;55.41
43115;BME280;28727;50.068;14.452;2022-08-05T03:40:32;98984.50;;;21.39;55.69
43115;BME280;28727;50.068;14.452;2022-08-05T03:43:06;98984.19;;;21.35;55.67
43115;BME280;28727;50.068;14.452;2022-08-05T03:45:58;98980.91;;;21.33;55.75
43115;BME280;28727;50.068;14.452;2022-08-05T03:48:30;98986.81;;;21.30;56.18
43115;BME280;28727;50.068;14.452;2022-08-05T03:51:19;98986.22;;;21.28;56.12
43115;BME280;28727;50.068;14.452;2022-08-05T03:54:22;98990.78;;;21.28;56.48
43115;BME280;28727;50.068;14.452;2022-08-05T03:57:24;98992.41;;;21.29;56.77
43115;BME280;28727;50.068;14.452;2022-08-05T04:00:14;98987.03;;;21.29;57.01
43115;BME280;28727;50.068;14.452;2022-08-05T04:02:48;98992.41;;;21.29;56.98
43115;BME280;28727;50.068;14.452;2022-08-05T04:05:31;98996.16;;;21.28;57.09
43115;BME280;28727;50.068;14.452;2022-08-05T04:08:07;98986.47;;;21.27;57.60
43115;BME280;28727;50.068;14.452;2022-08-05T04:11:00;98983.00;;;21.26;57.55
43115;BME280;28727;50.068;14.452;2022-08-05T04:13:32;98983.00;;;21.26;57.78
43115;BME280;28727;50.068;14.452;2022-08-05T04:16:22;98980.31;;;21.26;57.78
43115;BME280;28727;50.068;14.452;2022-08-05T04:18:56;98975.72;;;21.27;57.78
43115;BME280;28727;50.068;14.452;2022-08-05T04:21:30;98985.75;;;21.31;57.73
43115;BME280;28727;50.068;14.452;2022-08-05T04:24:21;98982.00;;;21.32;57.75
43115;BME280;28727;50.068;14.452;2022-08-05T04:26:53;98979.31;;;21.32;57.59
43115;BME280;28727;50.068;14.452;2022-08-05T04:29:28;98982.78;;;21.33;57.88
43115;BME280;28727;50.068;14.452;2022-08-05T04:32:00;98979.88;;;21.34;57.68
43115;BME280;28727;50.068;14.452;2022-08-05T04:34:32;98983.13;;;21.36;57.72
43115;BME280;28727;50.068;14.452;2022-08-05T04:37:13;98988.31;;;21.43;57.49
43115;BME280;28727;50.068;14.452;2022-08-05T04:39:44;98985.94;;;21.46;56.64
43115;BME280;28727;50.068;14.452;2022-08-05T04:42:23;98993.31;;;21.56;56.17
43115;BME280;28727;50.068;14.452;2022-08-05T04:44:56;98991.28;;;21.63;55.98
43115;BME280;28727;50.068;14.452;2022-08-05T04:47:33;98989.78;;;21.72;55.66
43115;BME280;28727;50.068;14.452;2022-08-05T04:50:09;98999.84;;;21.82;55.10
43115;BME280;28727;50.068;14.452;2022-08-05T04:52:42;98999.44;;;21.90;54.75
43115;BME280;28727;50.068;14.452;2022-08-05T04:55:15;99000.63;;;21.99;54.71
43115;BME280;28727;50.068;14.452;2022-08-05T04:57:52;99010.16;;;22.07;54.41
43115;BME280;28727;50.068;14.452;2022-08-05T05:00:24;99002.50;;;22.20;53.90
43115;BME280;28727;50.068;14.452;2022-08-05T05:02:56;98993.47;;;22.31;53.29
43115;BME280;28727;50.068;14.452;2022-08-05T05:05:35;98993.13;;;22.50;52.63
43115;BME280;28727;50.068;14.452;2022-08-05T05:08:26;98999.75;;;22.69;52.36
43115;BME280;28727;50.068;14.452;2022-08-05T05:11:00;99002.91;;;22.88;51.95
43115;BME280;28727;50.068;14.452;2022-08-05T05:13:32;99005.19;;;23.06;51.40
43115;BME280;28727;50.068;14.452;2022-08-05T05:16:14;99009.66;;;23.27;50.59
43115;BME280;28727;50.068;14.452;2022-08-05T05:18:50;99000.94;;;23.47;50.19
43115;BME280;28727;50.068;14.452;2022-08-05T05:21:41;98998.03;;;23.63;50.02
43115;BME280;28727;50.068;14.452;2022-08-05T05:24:16;99001.66;;;23.84;49.48
43115;BME280;28727;50.068;14.452;2022-08-05T05:26:49;98999.03;;;24.04;49.00
43115;BME280;28727;50.068;14.452;2022-08-05T05:29:22;98997.25;;;24.25;48.83
43115;BME280;28727;50.068;14.452;2022-08-05T05:32:14;98998.38;;;24.50;48.18
43115;BME280;28727;50.068;14.452;2022-08-05T05:34:49;99010.31;;;24.74;47.18
43115;BME280;28727;50.068;14.452;2022-08-05T05:37:22;99003.28;;;24.98;46.91
43115;BME280;28727;50.068;14.452;2022-08-05T05:40:15;98997.34;;;25.26;46.79
43115;BME280;28727;50.068;14.452;2022-08-05T05:42:50;98996.19;;;25.53;45.95
43115;BME280;28727;50.068;14.452;2022-08-05T05:45:24;98997.75;;;25.79;45.69
43115;BME280;28727;50.068;14.452;2022-08-05T05:47:57;98997.38;;;26.06;45.30
43115;BME280;28727;50.068;14.452;2022-08-05T05:50:38;98996.72;;;26.29;45.76
43115;BME280;28727;50.068;14.452;2022-08-05T05:53:14;98987.94;;;26.47;44.42
43115;BME280;28727;50.068;14.452;2022-08-05T05:55:53;98991.41;;;26.58;43.25
43115;BME280;28727;50.068;14.452;2022-08-05T05:58:33;98991.00;;;26.75;42.38
43115;BME280;28727;50.068;14.452;2022-08-05T06:01:10;98992.22;;;26.93;40.96
43115;BME280;28727;50.068;14.452;2022-08-05T06:03:45;98992.06;;;27.13;40.98
43115;BME280;28727;50.068;14.452;2022-08-05T06:06:32;98988.44;;;27.22;39.91
43115;BME280;28727;50.068;14.452;2022-08-05T06:09:05;98990.50;;;27.36;40.23
43115;BME280;28727;50.068;14.452;2022-08-05T06:11:38;98992.22;;;27.55;40.22
43115;BME280;28727;50.068;14.452;2022-08-05T06:14:09;98983.00;;;27.75;40.36
43115;BME280;28727;50.068;14.452;2022-08-05T06:16:41;98989.59;;;27.93;39.28
43115;BME280;28727;50.068;14.452;2022-08-05T06:19:14;98988.00;;;28.10;39.01
43115;BME280;28727;50.068;14.452;2022-08-05T06:22:06;98984.16;;;28.35;37.96
43115;BME280;28727;50.068;14.452;2022-08-05T06:24:42;98979.16;;;28.61;38.14
43115;BME280;28727;50.068;14.452;2022-08-05T06:27:19;98978.75;;;28.86;37.19
43115;BME280;28727;50.068;14.452;2022-08-05T06:30:11;98976.50;;;29.07;36.45
43115;BME280;28727;50.068;14.452;2022-08-05T06:32:51;98975.34;;;29.27;36.63
43115;BME280;28727;50.068;14.452;2022-08-05T06:35:23;98975.69;;;29.39;36.33
43115;BME280;28727;50.068;14.452;2022-08-05T06:38:15;98980.84;;;29.54;37.54
43115;BME280;28727;50.068;14.452;2022-08-05T06:41:07;98977.50;;;29.71;37.06
43115;BME280;28727;50.068;14.452;2022-08-05T06:43:42;98978.22;;;29.63;36.38
43115;BME280;28727;50.068;14.452;2022-08-05T06:46:30;98981.56;;;29.74;35.64
43115;BME280;28727;50.068;14.452;2022-08-05T06:49:02;98973.38;;;30.01;35.40
43115;BME280;28727;50.068;14.452;2022-08-05T06:51:38;98981.19;;;30.30;36.14
43115;BME280;28727;50.068;14.452;2022-08-05T06:54:11;98980.13;;;30.53;33.91
43115;BME280;28727;50.068;14.452;2022-08-05T06:56:49;98979.53;;;30.56;33.02
43115;BME280;28727;50.068;14.452;2022-08-05T06:59:44;98975.63;;;30.71;33.38
43115;BME280;28727;50.068;14.452;2022-08-05T07:02:31;98975.28;;;30.95;33.00
43115;BME280;28727;50.068;14.452;2022-08-05T07:05:05;98982.59;;;31.30;32.89
43115;BME280;28727;50.068;14.452;2022-08-05T07:07:52;98978.38;;;31.55;31.80
43115;BME280;28727;50.068;14.452;2022-08-05T07:10:24;98969.00;;;31.47;30.40
43115;BME280;28727;50.068;14.452;2022-08-05T07:13:03;98967.41;;;31.46;30.62
43115;BME280;28727;50.068;14.452;2022-08-05T07:16:13;98968.28;;;31.02;30.71
43115;BME280;28727;50.068;14.452;2022-08-05T07:19:23;98967.00;;;30.77;30.79
43115;BME280;28727;50.068;14.452;2022-08-05T07:22:16;98958.56;;;31.10;31.08
43115;BME280;28727;50.068;14.452;2022-08-05T07:24:49;98970.69;;;31.26;30.66
43115;BME280;28727;50.068;14.452;2022-08-05T07:27:24;98961.72;;;31.34;30.33
43115;BME280;28727;50.068;14.452;2022-08-05T07:30:15;98967.66;;;31.27;30.58
43115;BME280;28727;50.068;14.452;2022-08-05T07:33:02;98955.59;;;31.28;30.26
43115;BME280;28727;50.068;14.452;2022-08-05T07:35:39;98953.34;;;31.22;30.40
43115;BME280;28727;50.068;14.452;2022-08-05T07:38:32;98958.81;;;31.30;30.17
43115;BME280;28727;50.068;14.452;2022-08-05T07:41:16;98960.81;;;31.47;30.16
43115;BME280;28727;50.068;14.452;2022-08-05T07:44:08;98959.88;;;31.52;30.11
43115;BME280;28727;50.068;14.452;2022-08-05T07:46:49;98947.34;;;31.51;30.09
43115;BME280;28727;50.068;14.452;2022-08-05T07:49:21;98948.50;;;31.58;29.69
43115;BME280;28727;50.068;14.452;2022-08-05T07:51:53;98946.03;;;31.88;29.52
43115;BME280;28727;50.068;14.452;2022-08-05T07:54:25;98955.44;;;32.30;29.63
43115;BME280;28727;50.068;14.452;2022-08-05T07:57:04;98952.53;;;32.43;29.10
43115;BME280;28727;50.068;14.452;2022-08-05T07:59:56;98951.44;;;32.27;29.13
43115;BME280;28727;50.068;14.452;2022-08-05T08:02:28;98953.81;;;32.20;29.07
43115;BME280;28727;50.068;14.452;2022-08-05T08:05:19;98957.84;;;32.23;28.93
43115;BME280;28727;50.068;14.452;2022-08-05T08:07:52;98949.97;;;32.38;28.56
43115;BME280;28727;50.068;14.452;2022-08-05T08:10:34;98938.53;;;32.79;28.74
43115;BME280;28727;50.068;14.452;2022-08-05T08:13:06;98936.19;;;33.16;27.66
43115;BME280;28727;50.068;14.452;2022-08-05T08:15:43;98936.09;;;33.42;27.07
43115;BME280;28727;50.068;14.452;2022-08-05T08:18:36;98939.69;;;33.71;26.90
43115;BME280;28727;50.068;14.452;2022-08-05T08:21:08;98946.06;;;33.84;26.31
43115;BME280;28727;50.068;14.452;2022-08-05T08:23:48;98947.34;;;33.87;26.41
43115;BME280;28727;50.068;14.452;2022-08-05T08:26:35;98948.09;;;33.96;26.67
43115;BME280;28727;50.068;14.452;2022-08-05T08:29:12;98951.50;;;34.22;26.21
43115;BME280;28727;50.068;14.452;2022-08-05T08:32:04;98956.41;;;34.49;26.59
43115;BME280;28727;50.068;14.452;2022-08-05T08:34:41;98961.09;;;34.49;25.90
43115;BME280;28727;50.068;14.452;2022-08-05T08:37:13;98952.69;;;34.75;26.30
43115;BME280;28727;50.068;14.452;2022-08-05T08:39:49;98953.78;;;35.07;25.41
43115;BME280;28727;50.068;14.452;2022-08-05T08:42:21;98951.66;;;35.24;25.09
43115;BME280;28727;50.068;14.452;2022-08-05T08:45:14;98950.19;;;34.94;25.27
43115;BME280;28727;50.068;14.452;2022-08-05T08:47:58;98950.66;;;34.96;25.40
43115;BME280;28727;50.068;14.452;2022-08-05T08:50:53;98950.13;;;35.03;25.29
43115;BME280;28727;50.068;14.452;2022-08-05T08:53:46;98946.75;;;35.30;25.14
43115;BME280;28727;50.068;14.452;2022-08-05T08:56:18;98955.00;;;35.54;25.32
43115;BME280;28727;50.068;14.452;2022-08-05T08:58:53;98955.28;;;35.74;25.13
43115;BME280;28727;50.068;14.452;2022-08-05T09:01:28;98961.31;;;35.67;25.13
43115;BME280;28727;50.068;14.452;2022-08-05T09:04:00;98958.69;;;35.83;24.48
43115;BME280;28727;50.068;14.452;2022-08-05T09:06:32;98961.91;;;35.97;24.41
43115;BME280;28727;50.068;14.452;2022-08-05T09:09:06;98965.88;;;35.99;24.23
43115;BME280;28727;50.068;14.452;2022-08-05T09:11:39;98969.91;;;36.02;23.94
43115;BME280;28727;50.068;14.452;2022-08-05T09:14:26;98965.31;;;36.18;24.01
43115;BME280;28727;50.068;14.452;2022-08-05T09:17:18;98963.25;;;36.27;23.56
43115;BME280;28727;50.068;14.452;2022-08-05T09:20:10;98968.00;;;36.42;24.20
43115;BME280;28727;50.068;14.452;2022-08-05T09:25:42;98978.94;;;36.15;24.57
43115;BME280;28727;50.068;14.452;2022-08-05T09:28:36;98975.03;;;36.40;24.82
43115;BME280;28727;50.068;14.452;2022-08-05T09:31:11;98983.16;;;36.76;26.55
43115;BME280;28727;50.068;14.452;2022-08-05T09:34:06;98969.97;;;36.98;25.38
43115;BME280;28727;50.068;14.452;2022-08-05T09:36:53;98966.88;;;36.99;24.78
43115;BME280;28727;50.068;14.452;2022-08-05T09:39:37;98960.66;;;37.02;24.89
43115;BME280;28727;50.068;14.452;2022-08-05T09:42:22;98959.75;;;36.98;24.40
43115;BME280;28727;50.068;14.452;2022-08-05T09:45:05;98957.09;;;37.02;23.68
43115;BME280;28727;50.068;14.452;2022-08-05T09:47:56;98944.91;;;36.87;23.97
43115;BME280;28727;50.068;14.452;2022-08-05T09:50:36;98934.44;;;37.08;23.58
43115;BME280;28727;50.068;14.452;2022-08-05T09:53:16;98921.19;;;36.98;23.78
43115;BME280;28727;50.068;14.452;2022-08-05T09:56:07;98918.88;;;37.00;24.27
43115;BME280;28727;50.068;14.452;2022-08-05T09:58:55;98916.56;;;37.02;24.48
43115;BME280;28727;50.068;14.452;2022-08-05T10:01:27;98926.28;;;37.12;23.49
43115;BME280;28727;50.068;14.452;2022-08-05T10:04:08;98918.63;;;37.05;23.25
43115;BME280;28727;50.068;14.452;2022-08-05T10:06:54;98924.78;;;37.14;23.63
43115;BME280;28727;50.068;14.452;2022-08-05T10:09:31;98923.97;;;37.14;24.71
43115;BME280;28727;50.068;14.452;2022-08-05T10:12:15;98932.91;;;37.23;23.20
43115;BME280;28727;50.068;14.452;2022-08-05T10:15:15;98932.91;;;36.95;23.95
43115;BME280;28727;50.068;14.452;2022-08-05T10:18:11;98938.91;;;36.69;24.14
43115;BME280;28727;50.068;14.452;2022-08-05T10:20:48;98946.75;;;36.55;24.21
43115;BME280;28727;50.068;14.452;2022-08-05T10:23:23;98945.91;;;36.67;24.86
43115;BME280;28727;50.068;14.452;2022-08-05T10:26:15;98944.97;;;36.75;25.88
43115;BME280;28727;50.068;14.452;2022-08-05T10:28:47;98943.72;;;36.88;24.74
43115;BME280;28727;50.068;14.452;2022-08-05T10:31:19;98937.19;;;36.92;24.95
43115;BME280;28727;50.068;14.452;2022-08-05T10:34:10;98933.97;;;37.06;24.77
43115;BME280;28727;50.068;14.452;2022-08-05T10:36:44;98926.28;;;37.12;23.95
43115;BME280;28727;50.068;14.452;2022-08-05T10:39:21;98921.56;;;37.12;24.58
43115;BME280;28727;50.068;14.452;2022-08-05T10:42:20;98941.81;;;37.04;23.74
43115;BME280;28727;50.068;14.452;2022-08-05T10:45:05;98942.13;;;37.15;24.14
43115;BME280;28727;50.068;14.452;2022-08-05T10:47:54;98941.50;;;37.21;22.68
43115;BME280;28727;50.068;14.452;2022-08-05T10:51:07;98937.34;;;37.00;23.31
43115;BME280;28727;50.068;14.452;2022-08-05T10:53:55;98936.81;;;36.94;22.84
43115;BME280;28727;50.068;14.452;2022-08-05T10:56:49;98939.34;;;36.99;21.76
43115;BME280;28727;50.068;14.452;2022-08-05T10:59:29;98928.13;;;37.08;20.72
43115;BME280;28727;50.068;14.452;2022-08-05T11:02:20;98933.41;;;37.13;21.44
43115;BME280;28727;50.068;14.452;2022-08-05T11:05:11;98931.44;;;37.29;22.26
43115;BME280;28727;50.068;14.452;2022-08-05T11:07:58;98929.69;;;37.21;22.90
43115;BME280;28727;50.068;14.452;2022-08-05T11:10:47;98928.13;;;37.08;21.33
43115;BME280;28727;50.068;14.452;2022-08-05T11:13:42;98928.53;;;37.22;21.72
43115;BME280;28727;50.068;14.452;2022-08-05T11:16:25;98931.28;;;37.22;21.62
43115;BME280;28727;50.068;14.452;2022-08-05T11:19:24;98924.88;;;37.18;21.55
43115;BME280;28727;50.068;14.452;2022-08-05T11:22:43;98917.44;;;37.06;21.97
43115;BME280;28727;50.068;14.452;2022-08-05T11:36:19;98936.50;;;37.43;22.49
43115;BME280;28727;50.068;14.452;2022-08-05T11:39:11;98925.47;;;37.11;21.91
43115;BME280;28727;50.068;14.452;2022-08-05T11:41:51;98927.59;;;37.02;22.48
43115;BME280;28727;50.068;14.452;2022-08-05T11:44:36;98926.19;;;37.08;23.05
43115;BME280;28727;50.068;14.452;2022-08-05T11:47:11;98926.59;;;37.22;22.74
43115;BME280;28727;50.068;14.452;2022-08-05T11:49:55;98929.59;;;37.33;22.46
43115;BME280;28727;50.068;14.452;2022-08-05T11:52:28;98916.78;;;37.41;22.14
43115;BME280;28727;50.068;14.452;2022-08-05T11:55:03;98931.72;;;37.40;22.66
43115;BME280;28727;50.068;14.452;2022-08-05T11:57:37;98918.41;;;37.57;22.71
43115;BME280;28727;50.068;14.452;2022-08-05T12:00:35;98924.75;;;37.77;22.47
43115;BME280;28727;50.068;14.452;2022-08-05T12:03:17;98922.97;;;37.85;22.36
43115;BME280;28727;50.068;14.452;2022-08-05T12:06:02;98911.81;;;37.62;21.64
43115;BME280;28727;50.068;14.452;2022-08-05T12:11:23;98915.28;;;37.27;23.28
43115;BME280;28727;50.068;14.452;2022-08-05T12:14:10;98921.94;;;37.26;23.37
43115;BME280;28727;50.068;14.452;2022-08-05T12:16:43;98922.56;;;37.20;23.18
43115;BME280;28727;50.068;14.452;2022-08-05T12:19:17;98920.28;;;37.22;23.83
43115;BME280;28727;50.068;14.452;2022-08-05T12:22:12;98918.75;;;37.24;23.89
43115;BME280;28727;50.068;14.452;2022-08-05T12:24:50;98921.94;;;37.26;23.65
43115;BME280;28727;50.068;14.452;2022-08-05T12:27:25;98924.88;;;37.18;22.44
43115;BME280;28727;50.068;14.452;2022-08-05T12:30:08;98928.00;;;37.16;22.57
43115;BME280;28727;50.068;14.452;2022-08-05T12:32:47;98928.88;;;37.20;22.28
43115;BME280;28727;50.068;14.452;2022-08-05T12:35:26;98912.94;;;37.29;22.54
43115;BME280;28727;50.068;14.452;2022-08-05T12:38:13;98924.06;;;37.49;22.90
43115;BME280;28727;50.068;14.452;2022-08-05T12:40:45;98919.91;;;37.39;22.25
43115;BME280;28727;50.068;14.452;2022-08-05T12:43:17;98923.19;;;37.29;22.00
43115;BME280;28727;50.068;14.452;2022-08-05T12:45:55;98909.84;;;37.31;22.66
43115;BME280;28727;50.068;14.452;2022-08-05T12:48:36;98912.34;;;37.36;22.98
43115;BME280;28727;50.068;14.452;2022-08-05T12:51:13;98912.94;;;37.29;23.59
43115;BME280;28727;50.068;14.452;2022-08-05T12:54:04;98908.25;;;37.30;23.40
43115;BME280;28727;50.068;14.452;2022-08-05T12:56:56;98909.84;;;37.31;23.02
43115;BME280;28727;50.068;14.452;2022-08-05T12:59:48;98899.25;;;37.17;22.55
43115;BME280;28727;50.068;14.452;2022-08-05T13:02:39;98905.84;;;37.13;23.17
43115;BME280;28727;50.068;14.452;2022-08-05T13:05:11;98905.44;;;37.11;23.37
43115;BME280;28727;50.068;14.452;2022-08-05T13:07:47;98906.31;;;36.71;24.35
43115;BME280;28727;50.068;14.452;2022-08-05T13:10:41;98908.34;;;36.46;24.38
43115;BME280;28727;50.068;14.452;2022-08-05T13:13:21;98910.22;;;36.42;23.99
43115;BME280;28727;50.068;14.452;2022-08-05T13:16:12;98904.63;;;36.39;23.94
43115;BME280;28727;50.068;14.452;2022-08-05T13:18:54;98901.69;;;36.47;24.09
43115;BME280;28727;50.068;14.452;2022-08-05T13:21:28;98886.50;;;36.66;24.21
43115;BME280;28727;50.068;14.452;2022-08-05T13:24:22;98887.94;;;36.75;25.07
43115;BME280;28727;50.068;14.452;2022-08-05T13:28:09;98877.75;;;36.91;25.45
43115;BME280;28727;50.068;14.452;2022-08-05T13:30:21;98873.56;;;36.98;24.20
43115;BME280;28727;50.068;14.452;2022-08-05T13:33:07;98870.19;;;37.04;24.13
43115;BME280;28727;50.068;14.452;2022-08-05T13:35:38;98874.56;;;37.05;23.71
43115;BME280;28727;50.068;14.452;2022-08-05T13:38:22;98869.59;;;37.11;24.76
43115;BME280;28727;50.068;14.452;2022-08-05T13:41:06;98866.63;;;36.88;23.99
43115;BME280;28727;50.068;14.452;2022-08-05T13:43:38;98872.03;;;36.84;24.21
43115;BME280;28727;50.068;14.452;2022-08-05T13:46:16;98869.63;;;36.83;23.82
43115;BME280;28727;50.068;14.452;2022-08-05T13:49:07;98863.41;;;36.70;23.63
43115;BME280;28727;50.068;14.452;2022-08-05T13:51:41;98858.97;;;36.66;23.63
43115;BME280;28727;50.068;14.452;2022-08-05T13:54:17;98860.34;;;36.60;23.79
43115;BME280;28727;50.068;14.452;2022-08-05T13:56:56;98859.78;;;36.38;25.99
43115;BME280;28727;50.068;14.452;2022-08-05T13:59:28;98853.53;;;36.13;26.48
43115;BME280;28727;50.068;14.452;2022-08-05T14:02:02;98856.50;;;35.93;26.14
43115;BME280;28727;50.068;14.452;2022-08-05T14:04:36;98850.06;;;35.89;25.45
43115;BME280;28727;50.068;14.452;2022-08-05T14:07:36;98853.03;;;35.96;25.54
43115;BME280;28727;50.068;14.452;2022-08-05T14:10:31;98847.28;;;36.01;25.70
43115;BME280;28727;50.068;14.452;2022-08-05T14:13:05;98851.09;;;35.96;26.27
43115;BME280;28727;50.068;14.452;2022-08-05T14:15:48;98853.78;;;35.81;25.48
43115;BME280;28727;50.068;14.452;2022-08-05T14:18:40;98850.56;;;35.54;26.39
43115;BME280;28727;50.068;14.452;2022-08-05T14:21:11;98850.03;;;35.37;26.13